FVAB weather

Aberdeen Airport
Aberdeen, Manicaland Province, Zimbabwe

Public forecast

Using degrees Celsius for public forecast. Weather courtesy of forecast.io.

Closest aviation weather report (METAR) to Aberdeen Airport

Closest report is Chimoio Airport, 71.7 nm (132.7 km) SE. Retrieved 2020/06/01 06:00 UTC (35 minutes ago):

FQCH 010600Z /////KT 0400 FG FEW015 14/14 Q1028

Closest aviation forecast (TAF) to Aberdeen Airport

Forecast is more than 12 hours old.

Closest forecast is Chimoio Airport, 71.7 nm (132.7 km) SE. Retrieved 2020/05/31 18:00 UTC (13 hours ago):

TAF FQCH 311600Z 3118/0118 09008KT 9999 SCT015 TX21/0113Z TN13/0103Z BECMG 0100/0102 23006KT BECMG 0112/0114 15010KT